sensor_id;sensor_type;location;lat;lon;timestamp;temperature;humidity
6988;DHT22;3534;49.960;8.018;2024-02-15T00:00:18;12.70;99.90
6988;DHT22;3534;49.960;8.018;2024-02-15T00:02:45;12.70;99.90
6988;DHT22;3534;49.960;8.018;2024-02-15T00:05:13;12.70;99.90
6988;DHT22;3534;49.960;8.018;2024-02-15T00:07:41;12.70;99.90
6988;DHT22;3534;49.960;8.018;2024-02-15T00:10:09;12.70;99.90
6988;DHT22;3534;49.960;8.018;2024-02-15T00:12:37;12.70;99.90
6988;DHT22;3534;49.960;8.018;2024-02-15T00:15:04;12.60;99.90
6988;DHT22;3534;49.960;8.018;2024-02-15T00:17:31;12.60;99.90
6988;DHT22;3534;49.960;8.018;2024-02-15T00:20:00;12.60;99.90
6988;DHT22;3534;49.960;8.018;2024-02-15T00:22:28;12.60;99.90
6988;DHT22;3534;49.960;8.018;2024-02-15T00:24:55;12.60;99.90
6988;DHT22;3534;49.960;8.018;2024-02-15T00:27:21;12.60;99.90
6988;DHT22;3534;49.960;8.018;2024-02-15T00:29:48;12.60;99.90
6988;DHT22;3534;49.960;8.018;2024-02-15T00:32:15;12.60;99.90
6988;DHT22;3534;49.960;8.018;2024-02-15T00:34:41;12.60;99.90
6988;DHT22;3534;49.960;8.018;2024-02-15T00:37:08;12.60;99.90
6988;DHT22;3534;49.960;8.018;2024-02-15T00:39:36;12.60;99.90
6988;DHT22;3534;49.960;8.018;2024-02-15T00:42:04;12.60;99.90
6988;DHT22;3534;49.960;8.018;2024-02-15T00:44:31;12.60;99.90
6988;DHT22;3534;49.960;8.018;2024-02-15T00:46:58;12.60;99.90
6988;DHT22;3534;49.960;8.018;2024-02-15T00:49:24;12.50;99.90
6988;DHT22;3534;49.960;8.018;2024-02-15T00:51:53;12.50;99.90
6988;DHT22;3534;49.960;8.018;2024-02-15T00:54:20;12.50;99.90
6988;DHT22;3534;49.960;8.018;2024-02-15T00:56:49;12.50;99.90
6988;DHT22;3534;49.960;8.018;2024-02-15T00:59:16;12.50;99.90
6988;DHT22;3534;49.960;8.018;2024-02-15T01:01:43;12.50;99.90
6988;DHT22;3534;49.960;8.018;2024-02-15T01:04:12;12.50;99.90
6988;DHT22;3534;49.960;8.018;2024-02-15T01:06:38;12.50;99.90
6988;DHT22;3534;49.960;8.018;2024-02-15T01:09:05;12.50;99.90
6988;DHT22;3534;49.960;8.018;2024-02-15T01:11:33;12.60;99.90
6988;DHT22;3534;49.960;8.018;2024-02-15T01:14:03;12.60;99.90
6988;DHT22;3534;49.960;8.018;2024-02-15T01:16:30;12.60;99.90
6988;DHT22;3534;49.960;8.018;2024-02-15T01:18:57;12.60;99.90
6988;DHT22;3534;49.960;8.018;2024-02-15T01:21:23;12.60;99.90
6988;DHT22;3534;49.960;8.018;2024-02-15T01:23:50;12.60;99.90
6988;DHT22;3534;49.960;8.018;2024-02-15T01:26:19;12.60;99.90
6988;DHT22;3534;49.960;8.018;2024-02-15T01:28:45;12.60;99.90
6988;DHT22;3534;49.960;8.018;2024-02-15T01:31:14;12.60;99.90
6988;DHT22;3534;49.960;8.018;2024-02-15T01:33:43;12.50;99.90
6988;DHT22;3534;49.960;8.018;2024-02-15T01:36:13;12.50;99.90
6988;DHT22;3534;49.960;8.018;2024-02-15T01:38:41;12.50;99.90
6988;DHT22;3534;49.960;8.018;2024-02-15T01:41:07;12.50;99.90
6988;DHT22;3534;49.960;8.018;2024-02-15T01:43:35;12.50;99.90
6988;DHT22;3534;49.960;8.018;2024-02-15T01:46:04;12.50;99.90
6988;DHT22;3534;49.960;8.018;2024-02-15T01:48:36;12.50;99.90
6988;DHT22;3534;49.960;8.018;2024-02-15T01:51:03;12.40;99.90
6988;DHT22;3534;49.960;8.018;2024-02-15T01:53:31;12.50;99.90
6988;DHT22;3534;49.960;8.018;2024-02-15T01:55:59;12.50;99.90
6988;DHT22;3534;49.960;8.018;2024-02-15T01:58:26;12.40;99.90
6988;DHT22;3534;49.960;8.018;2024-02-15T02:00:55;12.40;99.90
6988;DHT22;3534;49.960;8.018;2024-02-15T02:03:22;12.50;99.90
6988;DHT22;3534;49.960;8.018;2024-02-15T02:05:50;12.40;99.90
6988;DHT22;3534;49.960;8.018;2024-02-15T02:08:17;12.50;99.90
6988;DHT22;3534;49.960;8.018;2024-02-15T02:10:44;12.50;99.90
6988;DHT22;3534;49.960;8.018;2024-02-15T02:13:11;12.50;99.90
6988;DHT22;3534;49.960;8.018;2024-02-15T02:15:39;12.50;99.90
6988;DHT22;3534;49.960;8.018;2024-02-15T02:18:05;12.50;99.90
6988;DHT22;3534;49.960;8.018;2024-02-15T02:20:34;12.50;99.90
6988;DHT22;3534;49.960;8.018;2024-02-15T02:23:04;12.50;99.90
6988;DHT22;3534;49.960;8.018;2024-02-15T02:25:34;12.40;99.90
6988;DHT22;3534;49.960;8.018;2024-02-15T02:28:01;12.40;99.90
6988;DHT22;3534;49.960;8.018;2024-02-15T02:30:28;12.40;99.90
6988;DHT22;3534;49.960;8.018;2024-02-15T02:32:55;12.40;99.90
6988;DHT22;3534;49.960;8.018;2024-02-15T02:35:24;12.40;99.90
6988;DHT22;3534;49.960;8.018;2024-02-15T02:37:51;12.40;99.90
6988;DHT22;3534;49.960;8.018;2024-02-15T02:40:19;12.40;99.90
6988;DHT22;3534;49.960;8.018;2024-02-15T02:42:48;12.30;99.90
6988;DHT22;3534;49.960;8.018;2024-02-15T02:45:15;12.30;99.90
6988;DHT22;3534;49.960;8.018;2024-02-15T02:47:42;12.30;99.90
6988;DHT22;3534;49.960;8.018;2024-02-15T02:50:09;12.30;99.90
6988;DHT22;3534;49.960;8.018;2024-02-15T02:52:35;12.30;99.90
6988;DHT22;3534;49.960;8.018;2024-02-15T02:55:04;12.20;99.90
6988;DHT22;3534;49.960;8.018;2024-02-15T02:57:33;12.20;99.90
6988;DHT22;3534;49.960;8.018;2024-02-15T03:00:02;12.20;99.90
6988;DHT22;3534;49.960;8.018;2024-02-15T03:02:32;12.20;99.90
6988;DHT22;3534;49.960;8.018;2024-02-15T03:05:01;12.20;99.90
6988;DHT22;3534;49.960;8.018;2024-02-15T03:07:28;12.20;99.90
6988;DHT22;3534;49.960;8.018;2024-02-15T03:09:54;12.20;99.90
6988;DHT22;3534;49.960;8.018;2024-02-15T03:12:21;12.20;99.90
6988;DHT22;3534;49.960;8.018;2024-02-15T03:14:48;12.20;99.90
6988;DHT22;3534;49.960;8.018;2024-02-15T03:17:16;12.20;99.90
6988;DHT22;3534;49.960;8.018;2024-02-15T03:19:42;12.20;99.90
6988;DHT22;3534;49.960;8.018;2024-02-15T03:22:09;12.20;99.90
6988;DHT22;3534;49.960;8.018;2024-02-15T03:24:39;12.20;99.90
6988;DHT22;3534;49.960;8.018;2024-02-15T03:27:05;12.20;99.90
6988;DHT22;3534;49.960;8.018;2024-02-15T03:29:32;12.20;99.90
6988;DHT22;3534;49.960;8.018;2024-02-15T03:32:01;12.20;99.90
6988;DHT22;3534;49.960;8.018;2024-02-15T03:34:30;12.20;99.90
6988;DHT22;3534;49.960;8.018;2024-02-15T03:36:57;12.20;99.90
6988;DHT22;3534;49.960;8.018;2024-02-15T03:39:24;12.20;99.90
6988;DHT22;3534;49.960;8.018;2024-02-15T03:41:51;12.10;99.90
6988;DHT22;3534;49.960;8.018;2024-02-15T03:44:19;12.10;99.90
6988;DHT22;3534;49.960;8.018;2024-02-15T03:46:45;12.10;99.90
6988;DHT22;3534;49.960;8.018;2024-02-15T03:49:16;12.10;99.90
6988;DHT22;3534;49.960;8.018;2024-02-15T03:51:44;12.10;99.90
6988;DHT22;3534;49.960;8.018;2024-02-15T03:54:11;12.10;99.90
6988;DHT22;3534;49.960;8.018;2024-02-15T03:56:46;12.10;99.90
6988;DHT22;3534;49.960;8.018;2024-02-15T03:59:13;12.10;99.90
6988;DHT22;3534;49.960;8.018;2024-02-15T04:01:39;12.10;99.90
6988;DHT22;3534;49.960;8.018;2024-02-15T04:04:06;12.10;99.90
6988;DHT22;3534;49.960;8.018;2024-02-15T04:06:33;12.10;99.90
6988;DHT22;3534;49.960;8.018;2024-02-15T04:09:01;12.10;99.90
6988;DHT22;3534;49.960;8.018;2024-02-15T04:11:27;12.10;99.90
6988;DHT22;3534;49.960;8.018;2024-02-15T04:13:54;12.10;99.90
6988;DHT22;3534;49.960;8.018;2024-02-15T04:16:23;12.10;99.90
6988;DHT22;3534;49.960;8.018;2024-02-15T04:18:51;12.10;99.90
6988;DHT22;3534;49.960;8.018;2024-02-15T04:21:17;12.10;99.90
6988;DHT22;3534;49.960;8.018;2024-02-15T04:23:45;12.10;99.90
6988;DHT22;3534;49.960;8.018;2024-02-15T04:26:13;12.10;99.90
6988;DHT22;3534;49.960;8.018;2024-02-15T04:28:40;12.10;99.90
6988;DHT22;3534;49.960;8.018;2024-02-15T04:31:07;12.10;99.90
6988;DHT22;3534;49.960;8.018;2024-02-15T04:33:34;12.10;99.90
6988;DHT22;3534;49.960;8.018;2024-02-15T04:36:01;12.10;99.90
6988;DHT22;3534;49.960;8.018;2024-02-15T04:38:32;12.10;99.90
6988;DHT22;3534;49.960;8.018;2024-02-15T04:40:59;12.10;99.90
6988;DHT22;3534;49.960;8.018;2024-02-15T04:43:27;12.10;99.90
6988;DHT22;3534;49.960;8.018;2024-02-15T04:45:54;12.10;99.90
6988;DHT22;3534;49.960;8.018;2024-02-15T04:48:21;12.10;99.90
6988;DHT22;3534;49.960;8.018;2024-02-15T04:50:50;12.10;99.90
6988;DHT22;3534;49.960;8.018;2024-02-15T04:53:17;12.00;99.90
6988;DHT22;3534;49.960;8.018;2024-02-15T04:55:44;12.00;99.90
6988;DHT22;3534;49.960;8.018;2024-02-15T04:58:11;11.90;99.90
6988;DHT22;3534;49.960;8.018;2024-02-15T05:00:39;11.90;99.90
6988;DHT22;3534;49.960;8.018;2024-02-15T05:03:07;11.90;99.90
6988;DHT22;3534;49.960;8.018;2024-02-15T05:05:34;11.90;99.90
6988;DHT22;3534;49.960;8.018;2024-02-15T05:08:01;12.00;99.90
6988;DHT22;3534;49.960;8.018;2024-02-15T05:10:29;12.00;99.90
6988;DHT22;3534;49.960;8.018;2024-02-15T05:12:55;12.00;99.90
6988;DHT22;3534;49.960;8.018;2024-02-15T05:15:23;12.00;99.90
6988;DHT22;3534;49.960;8.018;2024-02-15T05:17:52;12.10;99.90
6988;DHT22;3534;49.960;8.018;2024-02-15T05:20:19;12.10;99.90
6988;DHT22;3534;49.960;8.018;2024-02-15T05:22:46;12.10;99.90
6988;DHT22;3534;49.960;8.018;2024-02-15T05:25:13;12.00;99.90
6988;DHT22;3534;49.960;8.018;2024-02-15T05:27:41;12.00;99.90
6988;DHT22;3534;49.960;8.018;2024-02-15T05:30:10;12.00;99.90
6988;DHT22;3534;49.960;8.018;2024-02-15T05:32:38;12.00;99.90
6988;DHT22;3534;49.960;8.018;2024-02-15T05:35:10;12.00;99.90
6988;DHT22;3534;49.960;8.018;2024-02-15T05:37:37;12.00;99.90
6988;DHT22;3534;49.960;8.018;2024-02-15T05:40:04;12.10;99.90
6988;DHT22;3534;49.960;8.018;2024-02-15T05:42:31;12.10;99.90
6988;DHT22;3534;49.960;8.018;2024-02-15T05:45:27;12.10;99.90
6988;DHT22;3534;49.960;8.018;2024-02-15T05:47:48;12.10;99.90
6988;DHT22;3534;49.960;8.018;2024-02-15T05:50:15;12.10;99.90
6988;DHT22;3534;49.960;8.018;2024-02-15T05:52:45;12.10;99.90
6988;DHT22;3534;49.960;8.018;2024-02-15T05:55:12;12.10;99.90
6988;DHT22;3534;49.960;8.018;2024-02-15T05:57:39;12.10;99.90
6988;DHT22;3534;49.960;8.018;2024-02-15T06:00:08;12.20;99.90
6988;DHT22;3534;49.960;8.018;2024-02-15T06:02:34;12.20;99.90
6988;DHT22;3534;49.960;8.018;2024-02-15T06:05:03;12.20;99.90
6988;DHT22;3534;49.960;8.018;2024-02-15T06:07:30;12.20;99.90
6988;DHT22;3534;49.960;8.018;2024-02-15T06:09:57;12.20;99.90
6988;DHT22;3534;49.960;8.018;2024-02-15T06:12:28;12.20;99.90
6988;DHT22;3534;49.960;8.018;2024-02-15T06:14:55;12.20;99.90
6988;DHT22;3534;49.960;8.018;2024-02-15T06:17:21;12.10;99.90
6988;DHT22;3534;49.960;8.018;2024-02-15T06:19:48;12.00;99.90
6988;DHT22;3534;49.960;8.018;2024-02-15T06:22:16;12.00;99.90
6988;DHT22;3534;49.960;8.018;2024-02-15T06:24:42;11.90;99.90
6988;DHT22;3534;49.960;8.018;2024-02-15T06:27:09;11.90;99.90
6988;DHT22;3534;49.960;8.018;2024-02-15T06:29:36;11.90;99.90
6988;DHT22;3534;49.960;8.018;2024-02-15T06:32:21;11.90;99.90
6988;DHT22;3534;49.960;8.018;2024-02-15T06:35:05;11.90;99.90
6988;DHT22;3534;49.960;8.018;2024-02-15T06:37:59;11.90;99.90
6988;DHT22;3534;49.960;8.018;2024-02-15T06:40:43;11.90;99.90
6988;DHT22;3534;49.960;8.018;2024-02-15T06:43:10;11.90;99.90
6988;DHT22;3534;49.960;8.018;2024-02-15T06:45:37;11.90;99.90
6988;DHT22;3534;49.960;8.018;2024-02-15T06:48:10;11.80;99.90
6988;DHT22;3534;49.960;8.018;2024-02-15T06:50:37;11.90;99.90
6988;DHT22;3534;49.960;8.018;2024-02-15T06:53:06;11.90;99.90
6988;DHT22;3534;49.960;8.018;2024-02-15T06:55:33;11.90;99.90
6988;DHT22;3534;49.960;8.018;2024-02-15T06:58:02;11.90;99.90
6988;DHT22;3534;49.960;8.018;2024-02-15T07:00:28;11.90;99.90
6988;DHT22;3534;49.960;8.018;2024-02-15T07:02:56;11.90;99.90
6988;DHT22;3534;49.960;8.018;2024-02-15T07:05:22;11.90;99.90
6988;DHT22;3534;49.960;8.018;2024-02-15T07:07:49;11.90;99.90
6988;DHT22;3534;49.960;8.018;2024-02-15T07:10:18;11.90;99.90
6988;DHT22;3534;49.960;8.018;2024-02-15T07:12:46;11.90;99.90
6988;DHT22;3534;49.960;8.018;2024-02-15T07:15:15;11.90;99.90
6988;DHT22;3534;49.960;8.018;2024-02-15T07:17:42;11.90;99.90
6988;DHT22;3534;49.960;8.018;2024-02-15T07:20:11;11.90;99.90
6988;DHT22;3534;49.960;8.018;2024-02-15T07:22:42;11.90;99.90
6988;DHT22;3534;49.960;8.018;2024-02-15T07:25:11;11.90;99.90
6988;DHT22;3534;49.960;8.018;2024-02-15T07:27:39;12.00;99.90
6988;DHT22;3534;49.960;8.018;2024-02-15T07:30:07;12.00;99.90
6988;DHT22;3534;49.960;8.018;2024-02-15T07:32:34;12.00;99.90
6988;DHT22;3534;49.960;8.018;2024-02-15T07:35:01;12.00;99.90
6988;DHT22;3534;49.960;8.018;2024-02-15T07:37:28;12.00;99.90
6988;DHT22;3534;49.960;8.018;2024-02-15T07:39:55;12.00;99.90
6988;DHT22;3534;49.960;8.018;2024-02-15T07:42:21;12.00;99.90
6988;DHT22;3534;49.960;8.018;2024-02-15T07:44:52;12.00;99.90
6988;DHT22;3534;49.960;8.018;2024-02-15T07:47:19;12.00;99.90
6988;DHT22;3534;49.960;8.018;2024-02-15T07:49:49;12.00;99.90
6988;DHT22;3534;49.960;8.018;2024-02-15T07:52:16;12.10;99.90
6988;DHT22;3534;49.960;8.018;2024-02-15T07:54:42;12.10;99.90
6988;DHT22;3534;49.960;8.018;2024-02-15T07:57:09;12.10;99.90
6988;DHT22;3534;49.960;8.018;2024-02-15T07:59:36;12.10;99.90
6988;DHT22;3534;49.960;8.018;2024-02-15T08:02:06;12.10;99.90
6988;DHT22;3534;49.960;8.018;2024-02-15T08:04:32;12.10;99.90
6988;DHT22;3534;49.960;8.018;2024-02-15T08:06:59;12.10;99.90
6988;DHT22;3534;49.960;8.018;2024-02-15T08:09:26;12.10;99.90
6988;DHT22;3534;49.960;8.018;2024-02-15T08:11:53;12.10;99.90
6988;DHT22;3534;49.960;8.018;2024-02-15T08:14:21;12.10;99.90
6988;DHT22;3534;49.960;8.018;2024-02-15T08:16:48;12.10;99.90
6988;DHT22;3534;49.960;8.018;2024-02-15T08:19:16;12.20;99.90
6988;DHT22;3534;49.960;8.018;2024-02-15T08:21:42;12.20;99.90
6988;DHT22;3534;49.960;8.018;2024-02-15T08:24:11;12.20;99.90
6988;DHT22;3534;49.960;8.018;2024-02-15T08:26:39;12.20;99.90
6988;DHT22;3534;49.960;8.018;2024-02-15T08:29:07;12.20;99.90
6988;DHT22;3534;49.960;8.018;2024-02-15T08:31:35;12.30;99.90
6988;DHT22;3534;49.960;8.018;2024-02-15T08:34:02;12.30;99.90
6988;DHT22;3534;49.960;8.018;2024-02-15T08:36:32;12.40;99.90
6988;DHT22;3534;49.960;8.018;2024-02-15T08:38:58;12.40;99.90
6988;DHT22;3534;49.960;8.018;2024-02-15T08:41:25;12.40;99.90
6988;DHT22;3534;49.960;8.018;2024-02-15T08:43:53;12.40;99.90
6988;DHT22;3534;49.960;8.018;2024-02-15T08:46:22;12.40;99.90
6988;DHT22;3534;49.960;8.018;2024-02-15T08:48:50;12.50;99.90
6988;DHT22;3534;49.960;8.018;2024-02-15T08:51:17;12.40;99.90
6988;DHT22;3534;49.960;8.018;2024-02-15T08:53:47;12.50;99.90
6988;DHT22;3534;49.960;8.018;2024-02-15T08:56:14;12.50;99.90
6988;DHT22;3534;49.960;8.018;2024-02-15T08:58:40;12.50;99.90
6988;DHT22;3534;49.960;8.018;2024-02-15T09:01:08;12.60;99.90
6988;DHT22;3534;49.960;8.018;2024-02-15T09:03:34;12.60;99.90
6988;DHT22;3534;49.960;8.018;2024-02-15T09:06:01;12.50;99.90
6988;DHT22;3534;49.960;8.018;2024-02-15T09:08:29;12.60;99.90
6988;DHT22;3534;49.960;8.018;2024-02-15T09:10:57;12.60;99.90
6988;DHT22;3534;49.960;8.018;2024-02-15T09:13:24;12.60;99.90
6988;DHT22;3534;49.960;8.018;2024-02-15T09:15:51;12.70;99.90
6988;DHT22;3534;49.960;8.018;2024-02-15T09:18:18;12.70;99.90
6988;DHT22;3534;49.960;8.018;2024-02-15T09:20:48;12.80;99.90
6988;DHT22;3534;49.960;8.018;2024-02-15T09:23:20;12.80;99.90
6988;DHT22;3534;49.960;8.018;2024-02-15T09:25:49;12.80;99.90
6988;DHT22;3534;49.960;8.018;2024-02-15T09:28:18;12.90;99.90
6988;DHT22;3534;49.960;8.018;2024-02-15T09:30:48;12.90;99.90
6988;DHT22;3534;49.960;8.018;2024-02-15T09:33:17;12.90;99.90
6988;DHT22;3534;49.960;8.018;2024-02-15T09:35:44;12.90;99.90
6988;DHT22;3534;49.960;8.018;2024-02-15T09:38:11;13.00;99.90
6988;DHT22;3534;49.960;8.018;2024-02-15T09:40:38;13.10;99.90
6988;DHT22;3534;49.960;8.018;2024-02-15T09:43:06;13.10;99.90
6988;DHT22;3534;49.960;8.018;2024-02-15T09:45:34;13.20;99.90
6988;DHT22;3534;49.960;8.018;2024-02-15T09:48:05;13.10;99.90
6988;DHT22;3534;49.960;8.018;2024-02-15T09:50:34;13.10;99.90
6988;DHT22;3534;49.960;8.018;2024-02-15T09:53:01;13.10;99.90
6988;DHT22;3534;49.960;8.018;2024-02-15T09:55:33;13.10;99.90
6988;DHT22;3534;49.960;8.018;2024-02-15T09:58:00;13.20;99.90
6988;DHT22;3534;49.960;8.018;2024-02-15T10:00:30;13.30;99.90
6988;DHT22;3534;49.960;8.018;2024-02-15T10:02:58;13.30;99.90
6988;DHT22;3534;49.960;8.018;2024-02-15T10:05:26;13.40;99.90
6988;DHT22;3534;49.960;8.018;2024-02-15T10:07:53;13.40;99.90
6988;DHT22;3534;49.960;8.018;2024-02-15T10:10:21;13.40;99.90
6988;DHT22;3534;49.960;8.018;2024-02-15T10:12:48;13.50;99.90
6988;DHT22;3534;49.960;8.018;2024-02-15T10:15:31;13.60;99.90
6988;DHT22;3534;49.960;8.018;2024-02-15T10:18:01;13.60;99.90
6988;DHT22;3534;49.960;8.018;2024-02-15T10:20:28;13.70;99.90
6988;DHT22;3534;49.960;8.018;2024-02-15T10:23:09;13.80;99.90
6988;DHT22;3534;49.960;8.018;2024-02-15T10:25:36;13.90;99.90
6988;DHT22;3534;49.960;8.018;2024-02-15T10:28:04;13.90;99.90
6988;DHT22;3534;49.960;8.018;2024-02-15T10:30:33;14.00;99.90
6988;DHT22;3534;49.960;8.018;2024-02-15T10:33:02;14.10;99.90
6988;DHT22;3534;49.960;8.018;2024-02-15T10:35:30;14.20;99.90
6988;DHT22;3534;49.960;8.018;2024-02-15T10:38:06;14.30;99.90
6988;DHT22;3534;49.960;8.018;2024-02-15T10:40:33;14.30;99.90
6988;DHT22;3534;49.960;8.018;2024-02-15T10:43:03;14.40;99.90
6988;DHT22;3534;49.960;8.018;2024-02-15T10:45:30;14.40;99.90
6988;DHT22;3534;49.960;8.018;2024-02-15T10:47:57;14.50;99.90
6988;DHT22;3534;49.960;8.018;2024-02-15T10:50:25;14.50;99.90
6988;DHT22;3534;49.960;8.018;2024-02-15T10:52:54;14.60;99.90
6988;DHT22;3534;49.960;8.018;2024-02-15T10:55:26;14.70;99.90
6988;DHT22;3534;49.960;8.018;2024-02-15T10:57:58;14.70;99.90
6988;DHT22;3534;49.960;8.018;2024-02-15T11:00:29;14.80;99.90
6988;DHT22;3534;49.960;8.018;2024-02-15T11:03:01;14.80;99.90
6988;DHT22;3534;49.960;8.018;2024-02-15T11:05:33;14.80;99.90
6988;DHT22;3534;49.960;8.018;2024-02-15T11:08:05;14.90;99.90
6988;DHT22;3534;49.960;8.018;2024-02-15T11:10:32;14.90;99.90
6988;DHT22;3534;49.960;8.018;2024-02-15T11:13:00;15.00;99.90
6988;DHT22;3534;49.960;8.018;2024-02-15T11:15:48;15.10;99.90
6988;DHT22;3534;49.960;8.018;2024-02-15T11:18:43;15.10;99.90
6988;DHT22;3534;49.960;8.018;2024-02-15T11:21:16;15.20;99.90
6988;DHT22;3534;49.960;8.018;2024-02-15T11:23:43;15.30;99.90
6988;DHT22;3534;49.960;8.018;2024-02-15T11:28:52;15.40;99.90
6988;DHT22;3534;49.960;8.018;2024-02-15T11:31:54;15.40;99.90
6988;DHT22;3534;49.960;8.018;2024-02-15T11:34:42;15.50;99.90
6988;DHT22;3534;49.960;8.018;2024-02-15T11:37:52;15.60;99.90
6988;DHT22;3534;49.960;8.018;2024-02-15T11:40:20;15.60;99.90
6988;DHT22;3534;49.960;8.018;2024-02-15T11:42:48;15.60;99.90
6988;DHT22;3534;49.960;8.018;2024-02-15T11:45:16;15.70;99.90
6988;DHT22;3534;49.960;8.018;2024-02-15T11:47:48;15.70;99.90
6988;DHT22;3534;49.960;8.018;2024-02-15T11:50:16;15.70;99.90
6988;DHT22;3534;49.960;8.018;2024-02-15T11:52:44;15.80;99.90
6988;DHT22;3534;49.960;8.018;2024-02-15T11:55:12;15.80;99.90
6988;DHT22;3534;49.960;8.018;2024-02-15T11:57:39;15.80;99.90
6988;DHT22;3534;49.960;8.018;2024-02-15T12:00:21;15.90;99.90
6988;DHT22;3534;49.960;8.018;2024-02-15T12:03:03;15.90;99.90
6988;DHT22;3534;49.960;8.018;2024-02-15T12:05:49;15.90;99.90
6988;DHT22;3534;49.960;8.018;2024-02-15T12:08:33;16.00;99.90
6988;DHT22;3534;49.960;8.018;2024-02-15T12:11:22;16.00;99.90
6988;DHT22;3534;49.960;8.018;2024-02-15T12:14:06;16.00;99.90
6988;DHT22;3534;49.960;8.018;2024-02-15T12:17:04;16.00;99.90
6988;DHT22;3534;49.960;8.018;2024-02-15T12:19:49;16.10;99.90
6988;DHT22;3534;49.960;8.018;2024-02-15T12:22:18;16.10;99.90
6988;DHT22;3534;49.960;8.018;2024-02-15T12:24:53;16.10;99.90
6988;DHT22;3534;49.960;8.018;2024-02-15T12:27:22;16.10;99.90
6988;DHT22;3534;49.960;8.018;2024-02-15T12:29:55;16.20;99.90
6988;DHT22;3534;49.960;8.018;2024-02-15T12:32:23;16.10;99.90
6988;DHT22;3534;49.960;8.018;2024-02-15T12:34:51;16.10;99.90
6988;DHT22;3534;49.960;8.018;2024-02-15T12:37:18;16.10;99.90
6988;DHT22;3534;49.960;8.018;2024-02-15T12:39:46;16.10;99.90
6988;DHT22;3534;49.960;8.018;2024-02-15T12:42:13;16.10;99.90
6988;DHT22;3534;49.960;8.018;2024-02-15T12:44:44;16.10;99.90
6988;DHT22;3534;49.960;8.018;2024-02-15T12:47:21;16.10;99.90
6988;DHT22;3534;49.960;8.018;2024-02-15T12:49:50;16.20;99.90
6988;DHT22;3534;49.960;8.018;2024-02-15T12:52:34;16.10;99.90
6988;DHT22;3534;49.960;8.018;2024-02-15T12:55:09;16.10;99.90
6988;DHT22;3534;49.960;8.018;2024-02-15T12:57:36;16.10;99.90
6988;DHT22;3534;49.960;8.018;2024-02-15T13:00:07;16.10;99.90
6988;DHT22;3534;49.960;8.018;2024-02-15T13:02:39;16.10;99.90
6988;DHT22;3534;49.960;8.018;2024-02-15T13:05:06;16.20;99.90
6988;DHT22;3534;49.960;8.018;2024-02-15T13:07:34;16.20;99.90
6988;DHT22;3534;49.960;8.018;2024-02-15T13:10:01;16.20;99.90
6988;DHT22;3534;49.960;8.018;2024-02-15T13:12:29;16.20;99.90
6988;DHT22;3534;49.960;8.018;2024-02-15T13:14:55;16.20;99.90
6988;DHT22;3534;49.960;8.018;2024-02-15T13:17:23;16.20;99.90
6988;DHT22;3534;49.960;8.018;2024-02-15T13:19:52;16.20;99.90
6988;DHT22;3534;49.960;8.018;2024-02-15T13:22:27;16.30;99.90
6988;DHT22;3534;49.960;8.018;2024-02-15T13:24:54;16.30;99.90
6988;DHT22;3534;49.960;8.018;2024-02-15T13:27:21;16.30;99.90
6988;DHT22;3534;49.960;8.018;2024-02-15T13:29:49;16.30;99.90
6988;DHT22;3534;49.960;8.018;2024-02-15T13:32:16;16.30;99.90
6988;DHT22;3534;49.960;8.018;2024-02-15T13:34:47;16.30;99.90
6988;DHT22;3534;49.960;8.018;2024-02-15T13:37:17;16.40;99.90
6988;DHT22;3534;49.960;8.018;2024-02-15T13:39:46;16.40;99.90
6988;DHT22;3534;49.960;8.018;2024-02-15T13:42:13;16.40;99.90
6988;DHT22;3534;49.960;8.018;2024-02-15T13:44:39;16.50;99.90
6988;DHT22;3534;49.960;8.018;2024-02-15T13:47:06;16.50;99.90
6988;DHT22;3534;49.960;8.018;2024-02-15T13:49:32;16.50;99.90
6988;DHT22;3534;49.960;8.018;2024-02-15T13:52:01;16.50;99.90
6988;DHT22;3534;49.960;8.018;2024-02-15T13:54:29;16.50;99.90
6988;DHT22;3534;49.960;8.018;2024-02-15T13:56:56;16.60;99.90
6988;DHT22;3534;49.960;8.018;2024-02-15T13:59:23;16.60;99.90
6988;DHT22;3534;49.960;8.018;2024-02-15T14:01:49;16.60;99.90
6988;DHT22;3534;49.960;8.018;2024-02-15T14:04:16;16.70;99.90
6988;DHT22;3534;49.960;8.018;2024-02-15T14:06:43;16.70;99.90
6988;DHT22;3534;49.960;8.018;2024-02-15T14:09:11;16.70;99.90
6988;DHT22;3534;49.960;8.018;2024-02-15T14:11:38;16.80;99.90
6988;DHT22;3534;49.960;8.018;2024-02-15T14:14:05;16.80;99.90
6988;DHT22;3534;49.960;8.018;2024-02-15T14:16:32;16.80;99.90
6988;DHT22;3534;49.960;8.018;2024-02-15T14:18:59;16.90;99.90
6988;DHT22;3534;49.960;8.018;2024-02-15T14:21:29;16.90;99.90
6988;DHT22;3534;49.960;8.018;2024-02-15T14:23:57;16.90;99.90
6988;DHT22;3534;49.960;8.018;2024-02-15T14:26:30;16.90;99.90
6988;DHT22;3534;49.960;8.018;2024-02-15T14:28:57;17.00;99.90
6988;DHT22;3534;49.960;8.018;2024-02-15T14:31:27;17.00;99.90
6988;DHT22;3534;49.960;8.018;2024-02-15T14:34:11;17.00;99.90
6988;DHT22;3534;49.960;8.018;2024-02-15T14:36:37;17.00;99.90
6988;DHT22;3534;49.960;8.018;2024-02-15T14:39:04;17.00;99.90
6988;DHT22;3534;49.960;8.018;2024-02-15T14:41:35;17.00;99.90
6988;DHT22;3534;49.960;8.018;2024-02-15T14:44:03;17.00;99.90
6988;DHT22;3534;49.960;8.018;2024-02-15T14:46:30;17.00;99.90
6988;DHT22;3534;49.960;8.018;2024-02-15T14:49:00;17.00;99.90
6988;DHT22;3534;49.960;8.018;2024-02-15T14:51:27;17.00;99.90
6988;DHT22;3534;49.960;8.018;2024-02-15T14:53:54;17.00;99.90
6988;DHT22;3534;49.960;8.018;2024-02-15T14:56:21;17.00;99.90
6988;DHT22;3534;49.960;8.018;2024-02-15T14:58:49;17.00;99.90
6988;DHT22;3534;49.960;8.018;2024-02-15T15:01:16;17.00;99.90
6988;DHT22;3534;49.960;8.018;2024-02-15T15:03:53;17.00;99.90
6988;DHT22;3534;49.960;8.018;2024-02-15T15:06:20;17.00;99.90
6988;DHT22;3534;49.960;8.018;2024-02-15T15:09:04;17.00;99.90
6988;DHT22;3534;49.960;8.018;2024-02-15T15:11:48;17.00;99.90
6988;DHT22;3534;49.960;8.018;2024-02-15T15:14:34;17.00;99.90
6988;DHT22;3534;49.960;8.018;2024-02-15T15:17:03;17.00;99.90
6988;DHT22;3534;49.960;8.018;2024-02-15T15:19:29;16.90;99.90
6988;DHT22;3534;49.960;8.018;2024-02-15T15:21:56;16.90;99.90
6988;DHT22;3534;49.960;8.018;2024-02-15T15:24:23;16.80;99.90
6988;DHT22;3534;49.960;8.018;2024-02-15T15:26:49;16.80;99.90
6988;DHT22;3534;49.960;8.018;2024-02-15T15:29:16;16.80;99.90
6988;DHT22;3534;49.960;8.018;2024-02-15T15:31:44;16.70;99.90
6988;DHT22;3534;49.960;8.018;2024-02-15T15:34:10;16.70;99.90
6988;DHT22;3534;49.960;8.018;2024-02-15T15:36:37;16.60;99.90
6988;DHT22;3534;49.960;8.018;2024-02-15T15:39:04;16.60;99.90
6988;DHT22;3534;49.960;8.018;2024-02-15T15:41:35;16.60;99.90
6988;DHT22;3534;49.960;8.018;2024-02-15T15:44:03;16.50;99.90
6988;DHT22;3534;49.960;8.018;2024-02-15T15:46:29;16.50;99.90
6988;DHT22;3534;49.960;8.018;2024-02-15T15:49:00;16.40;99.90
6988;DHT22;3534;49.960;8.018;2024-02-15T15:51:26;16.40;99.90
6988;DHT22;3534;49.960;8.018;2024-02-15T15:53:53;16.30;99.90
6988;DHT22;3534;49.960;8.018;2024-02-15T15:56:21;16.30;99.90
6988;DHT22;3534;49.960;8.018;2024-02-15T15:58:48;16.30;99.90
6988;DHT22;3534;49.960;8.018;2024-02-15T16:01:15;16.20;99.90
6988;DHT22;3534;49.960;8.018;2024-02-15T16:03:42;16.20;99.90
6988;DHT22;3534;49.960;8.018;2024-02-15T16:06:12;16.20;99.90
6988;DHT22;3534;49.960;8.018;2024-02-15T16:08:39;16.20;99.90
6988;DHT22;3534;49.960;8.018;2024-02-15T16:11:08;16.10;99.90
6988;DHT22;3534;49.960;8.018;2024-02-15T16:13:38;16.10;99.90
6988;DHT22;3534;49.960;8.018;2024-02-15T16:16:06;16.00;99.90